• Join FlightAware (Why Join?)
  • Login
  • US Flag 
02:12AM EDT


 

Airport Tracker/Info


-or-


 

Live Flight TrackerFlight Track Log ✈ AWE2740 ✈ 26-Apr-2013 ✈ KIAD - KMHT

Flight Track Log - Related Links

Times and Time Zones

All times are in EDT time to prevent confusion due to time zone crossing. See the AWE2740 flight status page for this flight to view local times or setup timezone preferences in your user account.

Time Position Orientation Groundspeed Altitude Reporting Facility
EDT Latitude Longitude Course Direction KTS MPH feet Rate Location/Type
11:37PM 38.9833 -77.5333 90° East 221 254 3,500  Level Potomac TRACON
11:38PM 39.0500 -77.5167 11° North 269 310 5,600 2,400 Climbing Potomac TRACON
11:40PM 39.0592 -77.3372 86° East 319 367 10,500 2,160 Climbing Washington Center
11:42PM 39.1553 -77.2038 90° East  Level Estimated
11:43PM 39.0833 -76.6325 90° East  Level FlightAware Approximate
11:43PM 39.0681 -76.9658 83° East 349 402 16,400  Level Washington Center
11:45PM 39.1697 -76.8327 90° East  Level Estimated
11:47PM 39.1092 -76.3300 47° Northeast 441 507 19,000  Level Washington Center
11:48PM 39.0975 -76.1639 95° East 457 526 19,200 720 Climbing Washington Center
11:49PM 39.1513 -76.2026 83° East  Level FlightAware Approximate
11:49PM 39.1211 -76.0089 79° East 445 512 20,500  Level Washington Center
11:50PM 39.2069 -75.8889 47° Northeast 425 489 22,000 1,200 Climbing Washington Center
11:51PM 39.2989 -75.7686 45° Northeast 440 506 22,900 480 Climbing Washington Center
11:52PM 39.7075 -76.1186 47° Northeast  Level Estimated
11:52PM 39.3906 -75.6453 46° Northeast 458 527 23,000  Level Washington Center
11:53PM 39.4822 -75.5189 47° Northeast 469 540 23,900 660 Climbing Washington Center
11:54PM 39.5739 -75.3950 46° Northeast 476 548 24,400 540 Climbing Washington Center
11:55PM 39.6672 -75.2681 46° Northeast 476 548 25,000 600 Climbing Washington Center
11:56PM 39.7461 -75.1517 49° Northeast 476 548 25,600 660 Climbing Washington Center
11:57PM 39.8644 -75.0372 37° Northeast 483 556 26,400 720 Climbing Washington Center
11:59PM 40.0750 -74.9456 18° North 459 528 27,700 600 Climbing New York Center
12:00AM 40.2000 -74.8933 18° North 459 528 28,100 1,200 Climbing New York Center
12:02AM 40.3933 -74.8133 17° North 458 527 30,800 1,620 Climbing Boston Center
12:03AM 40.5111 -74.7658 17° North 453 521 32,400 1,080 Climbing Boston Center
12:04AM 40.6289 -74.7153 18° North 442 509 33,000 300 Climbing Boston Center
12:05AM 40.7508 -74.6647 17° North 442 509 33,000  Level Boston Center
12:06AM 40.8747 -74.6114 18° North 449 517 33,000  Level Boston Center
12:07AM 40.9989 -74.5578 18° North 459 528 33,000  Level Boston Center
12:08AM 41.1247 -74.5094 16° North 464 534 33,000  Level Boston Center
12:09AM 41.2633 -74.4533 17° North 464 534 33,000  Level Boston Center
12:10AM 41.3892 -74.4019 17° North 469 540 33,000  Level Boston Center
12:11AM 41.4986 -74.3414 23° Northeast 469 540 33,000  Level Boston Center
12:12AM 41.6092 -74.2086 42° Northeast 474 545 33,000 -180 Level Boston Center
12:13AM 41.6967 -74.0667 50° Northeast 474 545 32,700 -660 Descending Boston Center
12:14AM 41.7883 -73.9269 49° Northeast 487 560 31,700 -1,020 Descending Boston Center
12:15AM 41.8628 -73.8061 50° Northeast 481 554 30,700 -1,020 Descending Boston Center
12:16AM 41.9497 -73.6683 50° Northeast 481 554 29,700 -1,020 Descending Boston Center
12:17AM 42.0344 -73.5331 50° Northeast 475 547 28,700 -1,080 Descending Boston Center
12:18AM 42.1297 -73.3806 50° Northeast 475 547 27,600 -1,020 Descending Boston Center
12:19AM 42.1994 -73.2669 50° Northeast 454 522 26,700 -960 Descending Boston Center
12:20AM 42.2817 -73.1361 50° Northeast 454 522 25,700 -1,080 Descending Boston Center
12:21AM 42.3742 -72.9825 51° Northeast 465 535 24,600 -900 Descending Boston Center
12:22AM 42.4581 -72.8453 50° Northeast 471 542 24,000 -360 Descending Boston Center
12:23AM 42.5314 -72.7106 54° Northeast 459 528 23,900 -1,320 Descending Boston Center
12:24AM 42.5711 -72.5500 71° East 448 516 21,400 -2,280 Descending Boston Center
12:25AM 42.6108 -72.4258 66° East 442 509 19,400 -2,700 Descending Boston Center
12:26AM 42.6503 -72.2425 74° East 431 496 16,100 -3,060 Descending Boston Center
12:27AM 42.6853 -72.1011 71° East 404 465 13,300 -2,820 Descending Boston Center
12:28AM 42.7203 -71.9653 71° East 380 437 10,500 -1,800 Descending Boston Center
12:29AM 42.7489 -71.8492 71° East 347 399 9,700 -1,500 Descending Boston Center
12:30AM 42.7756 -71.7472 70° East 293 337 7,500 -2,220 Descending Boston Center
12:31AM 42.7978 -71.6592 71° East 268 308 5,300 -1,980 Descending Boston Center
12:32AM 42.8306 -71.5681 64° Northeast 255 293 3,600 -1,500 Descending Boston Center
12:33AM 42.8678 -71.5281 38° Northeast 199 229 2,400 -1,200 Descending Boston Center
12:34AM 42.8986 -71.4850 46° Northeast 150 173 1,200 12,300 Descending Boston Center
12:35AM 42.9256 -71.4533 41° Northeast 143 165 27,000 12,900 Climbing Boston Center
12:36AM 42.9606 -71.4131 40° Northeast 143 165 27,000  Level Boston Center
12:37AM 42.9914 -71.3786 39° Northeast 143 165 27,000  Level Boston Center
12:39AM 43.0533 -71.3064 40° Northeast 143 165 27,000  Level Boston Center
12:40AM 43.0533 -71.3064 14° North 143 165 27,000  Level Boston Center
12:43AM 42.9328 -71.4358 216° Southwest  Level Estimated
12:50AM 42.9328 -71.4358 216° Southwest  Level Estimated
12:51AM 42.9328 -71.4358 216° Southwest  Level Estimated
12:52AM 42.9328 -71.4358 216° Southwest  Level Estimated
12:53AM 42.9328 -71.4358 216° Southwest  Level Estimated